Time;durP1;ratioP1;P1;durP2;ratioP2;P2;SDS_P1;SDS_P2;PMS_P1;PMS_P2;Temp;Humidity;BMP_temperature;BMP_pressure;BME280_temperature;BME280_humidity;BME280_pressure;Samples;Min_cycle;Max_cycle;Signal;HPM_P1;HPM_P2
2022/08/26 00:00:56;;;;;;;;;;;22.40;99.90;;;;;;4590143;19;20313;-26
2022/08/26 00:02:27;;;;;;;;;;;22.50;99.90;;;;;;4589389;19;19919;-27
2022/08/26 00:03:59;;;;;;;;;;;22.50;99.90;;;;;;4589925;19;19919;-26
2022/08/26 00:05:30;;;;;;;;;;;22.50;99.90;;;;;;4590742;19;20240;-26
2022/08/26 00:07:01;;;;;;;;;;;22.50;99.90;;;;;;4590315;19;19919;-26
2022/08/26 00:08:32;;;;;;;;;;;22.50;99.90;;;;;;4590208;19;19911;-27
2022/08/26 00:10:04;;;;;;;;;;;22.50;99.90;;;;;;4590072;19;20262;-27
2022/08/26 00:11:35;;;;;;;;;;;22.50;99.90;;;;;;4590345;19;20283;-28
2022/08/26 00:13:06;;;;;;;;;;;22.50;99.90;;;;;;4590152;19;20284;-30
2022/08/26 00:14:37;;;;;;;;;;;22.50;99.90;;;;;;4588954;19;19929;-27
2022/08/26 00:16:09;;;;;;;;;;;22.50;99.90;;;;;;4588937;19;19923;-26
2022/08/26 00:17:40;;;;;;;;;;;22.50;99.90;;;;;;4589675;19;19974;-26
2022/08/26 00:19:11;;;;;;;;;;;22.50;99.90;;;;;;4588833;19;19946;-29
2022/08/26 00:20:41;;;;;;;;;;;22.50;99.90;;;;;;4589599;19;20324;-26
2022/08/26 00:22:13;;;;;;;;;;;22.50;99.90;;;;;;4589797;19;19923;-26
2022/08/26 00:23:44;;;;;;;;;;;22.50;99.90;;;;;;4590077;19;19971;-25
2022/08/26 00:25:15;;;;;;;;;;;22.50;99.90;;;;;;4588692;19;19926;-26
2022/08/26 00:26:46;;;;;;;;;;;22.50;99.90;;;;;;4588575;19;19932;-26
2022/08/26 00:28:17;;;;;;;;;;;22.50;99.90;;;;;;4589704;19;19915;-29
2022/08/26 00:29:48;;;;;;;;;;;22.50;99.90;;;;;;4590188;19;19910;-26
2022/08/26 00:31:19;;;;;;;;;;;22.50;99.90;;;;;;4589888;19;19945;-26
2022/08/26 00:32:50;;;;;;;;;;;22.50;99.90;;;;;;4590212;19;19958;-31
2022/08/26 00:34:22;;;;;;;;;;;22.50;99.90;;;;;;4589636;19;19935;-26
2022/08/26 00:35:53;;;;;;;;;;;22.50;99.90;;;;;;4589073;19;19910;-29
2022/08/26 00:37:24;;;;;;;;;;;22.50;99.90;;;;;;4588327;19;19927;-29
2022/08/26 00:38:55;;;;;;;;;;;22.40;99.90;;;;;;4588573;19;20329;-26
2022/08/26 00:40:37;;;;;;;;;;;22.40;99.90;;;;;;4589675;19;19929;-26
2022/08/26 00:42:08;;;;;;;;;;;22.40;99.90;;;;;;4588674;19;19918;-29
2022/08/26 00:43:39;;;;;;;;;;;22.40;99.90;;;;;;4589653;19;20015;-26
2022/08/26 00:45:10;;;;;;;;;;;22.40;99.90;;;;;;4589927;19;19934;-28
2022/08/26 00:46:42;;;;;;;;;;;22.40;99.90;;;;;;4589820;19;19930;-27
2022/08/26 00:48:14;;;;;;;;;;;22.40;99.90;;;;;;4588519;19;19926;-29
2022/08/26 00:49:46;;;;;;;;;;;22.40;99.90;;;;;;4588254;19;19926;-27
2022/08/26 00:51:18;;;;;;;;;;;22.40;99.90;;;;;;4589452;19;19922;-29
2022/08/26 00:52:49;;;;;;;;;;;22.40;99.90;;;;;;4589339;19;19933;-25
2022/08/26 00:54:23;;;;;;;;;;;22.40;99.90;;;;;;4588727;19;19921;-26
2022/08/26 00:55:57;;;;;;;;;;;22.40;99.90;;;;;;4588000;19;20333;-27
2022/08/26 00:57:28;;;;;;;;;;;22.40;99.90;;;;;;4589918;19;19922;-26
2022/08/26 00:59:00;;;;;;;;;;;22.40;99.90;;;;;;4588302;19;20245;-26
2022/08/26 01:00:31;;;;;;;;;;;22.40;99.90;;;;;;4587605;19;19926;-26
2022/08/26 01:02:02;;;;;;;;;;;22.40;99.90;;;;;;4588779;19;19919;-28
2022/08/26 01:03:33;;;;;;;;;;;22.40;99.90;;;;;;4588765;19;19918;-29
2022/08/26 01:05:05;;;;;;;;;;;22.40;99.90;;;;;;4589496;19;19914;-27
2022/08/26 01:06:36;;;;;;;;;;;22.40;99.90;;;;;;4588262;19;19925;-26
2022/08/26 01:08:07;;;;;;;;;;;22.40;99.90;;;;;;4590215;19;20313;-29
2022/08/26 01:09:38;;;;;;;;;;;22.40;99.90;;;;;;4593632;19;19922;-26
2022/08/26 01:11:09;;;;;;;;;;;22.40;99.90;;;;;;4592723;19;19923;-27
2022/08/26 01:12:41;;;;;;;;;;;22.40;99.90;;;;;;4593445;19;19921;-26
2022/08/26 01:14:12;;;;;;;;;;;22.40;99.90;;;;;;4592905;19;19970;-25
2022/08/26 01:15:47;;;;;;;;;;;22.40;99.90;;;;;;4592150;19;20237;-26
2022/08/26 01:17:18;;;;;;;;;;;22.40;99.90;;;;;;4593594;19;19931;-27
2022/08/26 01:18:49;;;;;;;;;;;22.40;99.90;;;;;;4594030;19;19918;-26
2022/08/26 01:20:24;;;;;;;;;;;22.40;99.90;;;;;;4592748;19;19915;-27
2022/08/26 01:21:59;;;;;;;;;;;22.40;99.90;;;;;;4592639;19;19983;-26
2022/08/26 01:23:31;;;;;;;;;;;22.40;99.90;;;;;;4593531;19;19918;-28
2022/08/26 01:25:02;;;;;;;;;;;22.40;99.90;;;;;;4592870;19;19998;-26
2022/08/26 01:26:39;;;;;;;;;;;22.40;99.90;;;;;;4592901;19;19967;-29
2022/08/26 01:28:14;;;;;;;;;;;22.40;99.90;;;;;;4592319;19;19926;-26
2022/08/26 01:29:46;;;;;;;;;;;22.30;99.90;;;;;;4592380;19;20482;-29
2022/08/26 01:31:17;;;;;;;;;;;22.30;99.90;;;;;;4592852;19;19926;-30
2022/08/26 01:32:48;;;;;;;;;;;22.30;99.90;;;;;;4592087;19;19910;-26
2022/08/26 01:34:24;;;;;;;;;;;22.40;99.90;;;;;;4593149;19;19943;-29
2022/08/26 01:35:55;;;;;;;;;;;22.30;99.90;;;;;;4592113;19;19923;-26
2022/08/26 01:37:27;;;;;;;;;;;22.30;99.90;;;;;;4593287;19;20458;-27
2022/08/26 01:38:58;;;;;;;;;;;22.30;99.90;;;;;;4591819;19;19915;-27
2022/08/26 01:40:31;;;;;;;;;;;22.30;99.90;;;;;;4593122;19;19919;-26
2022/08/26 01:42:02;;;;;;;;;;;22.30;99.90;;;;;;4591032;19;19927;-26
2022/08/26 01:43:33;;;;;;;;;;;22.30;99.90;;;;;;4592916;19;19974;-27
2022/08/26 01:45:06;;;;;;;;;;;22.30;99.90;;;;;;4590904;19;19926;-30
2022/08/26 01:46:37;;;;;;;;;;;22.30;99.90;;;;;;4591088;19;20374;-30
2022/08/26 01:48:10;;;;;;;;;;;22.30;99.90;;;;;;4592599;19;19914;-26
2022/08/26 01:49:41;;;;;;;;;;;22.30;99.90;;;;;;4593029;19;19911;-26
2022/08/26 01:51:12;;;;;;;;;;;22.30;99.90;;;;;;4591318;19;19914;-26
2022/08/26 01:52:43;;;;;;;;;;;22.30;99.90;;;;;;4590523;19;19950;-27
2022/08/26 01:54:15;;;;;;;;;;;22.30;99.90;;;;;;4591983;19;19926;-30
2022/08/26 01:55:46;;;;;;;;;;;22.30;99.90;;;;;;4591501;19;20244;-27
2022/08/26 01:57:18;;;;;;;;;;;22.30;99.90;;;;;;4591518;19;19925;-26
2022/08/26 01:58:53;;;;;;;;;;;22.30;99.90;;;;;;4592769;19;20243;-28
2022/08/26 02:00:24;;;;;;;;;;;22.30;99.90;;;;;;4591414;19;19919;-26
2022/08/26 02:01:55;;;;;;;;;;;22.30;99.90;;;;;;4591140;19;20336;-28
2022/08/26 02:03:26;;;;;;;;;;;22.30;99.90;;;;;;4591151;19;19927;-27
2022/08/26 02:04:58;;;;;;;;;;;22.20;99.90;;;;;;4591630;19;20380;-27
2022/08/26 02:06:29;;;;;;;;;;;22.30;99.90;;;;;;4591677;19;19935;-30
2022/08/26 02:08:01;;;;;;;;;;;22.30;99.90;;;;;;4592166;19;19974;-29
2022/08/26 02:09:32;;;;;;;;;;;22.30;99.90;;;;;;4592727;19;19991;-26
2022/08/26 02:11:03;;;;;;;;;;;22.30;99.90;;;;;;4592175;19;19939;-26
2022/08/26 02:12:34;;;;;;;;;;;22.20;99.90;;;;;;4590376;19;20251;-27
2022/08/26 02:14:09;;;;;;;;;;;22.30;99.90;;;;;;4592156;19;19925;-27
2022/08/26 02:15:40;;;;;;;;;;;22.20;99.90;;;;;;4590766;19;19939;-27
2022/08/26 02:17:11;;;;;;;;;;;22.20;99.90;;;;;;4591496;19;19933;-26
2022/08/26 02:18:42;;;;;;;;;;;22.20;99.90;;;;;;4590838;19;19922;-26
2022/08/26 02:20:15;;;;;;;;;;;22.20;99.90;;;;;;4590954;19;20363;-27
2022/08/26 02:21:47;;;;;;;;;;;22.20;99.90;;;;;;4592444;19;19923;-29
2022/08/26 02:23:18;;;;;;;;;;;22.20;99.90;;;;;;4590952;19;19914;-28
2022/08/26 02:24:51;;;;;;;;;;;22.20;99.90;;;;;;4591680;19;19918;-26
2022/08/26 02:26:22;;;;;;;;;;;22.20;99.90;;;;;;4591783;19;19923;-25
2022/08/26 02:27:55;;;;;;;;;;;22.20;99.90;;;;;;4590892;19;20438;-26
2022/08/26 02:29:26;;;;;;;;;;;22.20;99.90;;;;;;4590461;19;19919;-26
2022/08/26 02:30:57;;;;;;;;;;;22.20;99.90;;;;;;4591941;19;20328;-26
2022/08/26 02:32:28;;;;;;;;;;;22.20;99.90;;;;;;4591477;19;19922;-27
2022/08/26 02:34:09;;;;;;;;;;;22.20;99.90;;;;;;4592344;19;19923;-26
2022/08/26 02:35:40;;;;;;;;;;;22.20;99.90;;;;;;4590931;19;19915;-29
2022/08/26 02:37:12;;;;;;;;;;;22.20;99.90;;;;;;4591625;19;19919;-28
2022/08/26 02:38:42;;;;;;;;;;;22.20;99.90;;;;;;4589487;19;19949;-28
2022/08/26 02:40:13;;;;;;;;;;;22.20;99.90;;;;;;4591930;19;19978;-26
2022/08/26 02:41:45;;;;;;;;;;;22.20;99.90;;;;;;4590900;19;20357;-28
2022/08/26 02:43:17;;;;;;;;;;;22.10;99.90;;;;;;4590065;19;19926;-29
2022/08/26 02:44:48;;;;;;;;;;;22.10;99.90;;;;;;4591360;19;19926;-26
2022/08/26 02:46:20;;;;;;;;;;;22.10;99.90;;;;;;4591922;19;20203;-26
2022/08/26 02:47:51;;;;;;;;;;;22.10;99.90;;;;;;4591784;19;19974;-28
2022/08/26 02:49:22;;;;;;;;;;;22.10;99.90;;;;;;4592012;19;19935;-27
2022/08/26 02:50:53;;;;;;;;;;;22.10;99.90;;;;;;4592117;19;19926;-26
2022/08/26 02:52:24;;;;;;;;;;;22.10;99.90;;;;;;4592338;19;19919;-26
2022/08/26 02:53:55;;;;;;;;;;;22.10;99.90;;;;;;4590159;19;19921;-26
2022/08/26 02:55:27;;;;;;;;;;;22.10;99.90;;;;;;4590802;19;19923;-27
2022/08/26 02:56:58;;;;;;;;;;;22.10;99.90;;;;;;4588421;19;19939;-26
2022/08/26 02:58:29;;;;;;;;;;;22.10;99.90;;;;;;4589426;19;19923;-26
2022/08/26 03:00:00;;;;;;;;;;;22.10;99.90;;;;;;4588969;19;19933;-29
2022/08/26 03:01:32;;;;;;;;;;;22.10;99.90;;;;;;4588626;19;19935;-26
2022/08/26 03:03:03;;;;;;;;;;;22.00;99.90;;;;;;4589051;19;19978;-27
2022/08/26 03:04:34;;;;;;;;;;;22.10;99.90;;;;;;4589765;19;19947;-26
2022/08/26 03:06:05;;;;;;;;;;;22.00;99.90;;;;;;4589368;19;19934;-28
2022/08/26 03:07:36;;;;;;;;;;;22.00;99.90;;;;;;4588672;19;19922;-27
2022/08/26 03:09:07;;;;;;;;;;;22.00;99.90;;;;;;4589645;19;20392;-30
2022/08/26 03:10:39;;;;;;;;;;;22.00;99.90;;;;;;4589486;19;19941;-26
2022/08/26 03:12:10;;;;;;;;;;;22.00;99.90;;;;;;4589265;19;20284;-28
2022/08/26 03:13:41;;;;;;;;;;;22.00;99.90;;;;;;4589463;19;20907;-27
2022/08/26 03:15:13;;;;;;;;;;;21.90;99.90;;;;;;4589168;19;20325;-27
2022/08/26 03:16:44;;;;;;;;;;;22.00;99.90;;;;;;4589360;19;19929;-29
2022/08/26 03:18:15;;;;;;;;;;;22.00;99.90;;;;;;4588734;19;19914;-26
2022/08/26 03:19:47;;;;;;;;;;;22.00;99.90;;;;;;4588951;19;20359;-26
2022/08/26 03:21:18;;;;;;;;;;;22.00;99.90;;;;;;4588817;19;19956;-26
2022/08/26 03:22:52;;;;;;;;;;;22.00;99.90;;;;;;4588897;19;19911;-27
2022/08/26 03:24:23;;;;;;;;;;;22.00;99.90;;;;;;4589144;19;19919;-27
2022/08/26 03:25:54;;;;;;;;;;;21.90;99.90;;;;;;4589620;19;19982;-26
2022/08/26 03:27:25;;;;;;;;;;;21.90;99.90;;;;;;4588968;19;19927;-29
2022/08/26 03:30:47;;;;;;;;;;;21.90;99.90;;;;;;4591007;19;19967;-26
2022/08/26 03:32:19;;;;;;;;;;;21.90;99.90;;;;;;4588555;19;19922;-26
2022/08/26 03:33:50;;;;;;;;;;;21.90;99.90;;;;;;4590237;19;20324;-27
2022/08/26 03:35:21;;;;;;;;;;;22.00;99.90;;;;;;4590653;19;19914;-30
2022/08/26 03:36:52;;;;;;;;;;;22.00;99.90;;;;;;4591108;19;19915;-26
2022/08/26 03:38:26;;;;;;;;;;;21.90;99.90;;;;;;4590164;19;19927;-28
2022/08/26 03:39:57;;;;;;;;;;;21.90;99.90;;;;;;4590840;19;19919;-26
2022/08/26 03:41:31;;;;;;;;;;;22.00;99.90;;;;;;4589594;19;19925;-27
2022/08/26 03:43:03;;;;;;;;;;;21.90;99.90;;;;;;4591028;19;19982;-26
2022/08/26 03:44:35;;;;;;;;;;;21.90;99.90;;;;;;4589834;19;19926;-29
2022/08/26 03:46:06;;;;;;;;;;;21.90;99.90;;;;;;4590406;19;19922;-27
2022/08/26 03:47:38;;;;;;;;;;;21.90;99.90;;;;;;4590947;19;20356;-25
2022/08/26 03:49:08;;;;;;;;;;;21.90;99.90;;;;;;4591002;19;19919;-28
2022/08/26 03:50:40;;;;;;;;;;;21.90;99.90;;;;;;4589702;19;19979;-26
2022/08/26 03:52:12;;;;;;;;;;;21.90;99.90;;;;;;4590129;19;19970;-26
2022/08/26 03:53:43;;;;;;;;;;;21.90;99.90;;;;;;4590180;19;20328;-26
2022/08/26 03:55:14;;;;;;;;;;;21.90;99.90;;;;;;4590098;19;19911;-29
2022/08/26 03:56:46;;;;;;;;;;;21.90;99.90;;;;;;4590709;19;19919;-28
2022/08/26 03:58:17;;;;;;;;;;;21.90;99.90;;;;;;4590105;19;19938;-27
2022/08/26 03:59:48;;;;;;;;;;;21.90;99.90;;;;;;4590563;19;19910;-28
2022/08/26 04:01:19;;;;;;;;;;;21.80;99.90;;;;;;4590793;19;19943;-26
2022/08/26 04:02:50;;;;;;;;;;;21.90;99.90;;;;;;4588933;19;19918;-29
2022/08/26 04:04:21;;;;;;;;;;;21.80;99.90;;;;;;4589446;19;19911;-27
2022/08/26 04:05:52;;;;;;;;;;;21.90;99.90;;;;;;4590349;19;19947;-26
2022/08/26 04:07:24;;;;;;;;;;;21.90;99.90;;;;;;4589327;19;20352;-27
2022/08/26 04:08:56;;;;;;;;;;;21.90;99.90;;;;;;4590048;19;20361;-26
2022/08/26 04:10:27;;;;;;;;;;;21.90;99.90;;;;;;4590511;19;19914;-27
2022/08/26 04:11:58;;;;;;;;;;;21.80;99.90;;;;;;4590565;19;19939;-28
2022/08/26 04:13:29;;;;;;;;;;;21.90;99.90;;;;;;4589928;19;19923;-30
2022/08/26 04:15:00;;;;;;;;;;;21.80;99.90;;;;;;4588714;19;19915;-29
2022/08/26 04:16:31;;;;;;;;;;;21.80;99.90;;;;;;4588944;19;19919;-27
2022/08/26 04:18:02;;;;;;;;;;;21.80;99.90;;;;;;4589865;19;19925;-26
2022/08/26 04:19:33;;;;;;;;;;;21.80;99.90;;;;;;4589135;19;19914;-29
2022/08/26 04:21:04;;;;;;;;;;;21.80;99.90;;;;;;4589109;19;19925;-25
2022/08/26 04:22:35;;;;;;;;;;;21.90;99.90;;;;;;4589123;19;19949;-27
2022/08/26 04:24:07;;;;;;;;;;;21.80;99.90;;;;;;4590575;19;20388;-26
2022/08/26 04:25:38;;;;;;;;;;;21.90;99.90;;;;;;4589622;19;19938;-27
2022/08/26 04:27:09;;;;;;;;;;;21.80;99.90;;;;;;4589825;19;20257;-26
2022/08/26 04:28:40;;;;;;;;;;;21.90;99.90;;;;;;4589716;19;19951;-29
2022/08/26 04:30:11;;;;;;;;;;;21.80;99.90;;;;;;4590308;19;19945;-27
2022/08/26 04:31:42;;;;;;;;;;;21.90;99.90;;;;;;4590058;19;19919;-28
2022/08/26 04:33:14;;;;;;;;;;;21.80;99.90;;;;;;4589429;19;19926;-29
2022/08/26 04:34:45;;;;;;;;;;;21.90;99.90;;;;;;4589807;19;19911;-30
2022/08/26 04:36:16;;;;;;;;;;;21.90;99.90;;;;;;4588703;19;20380;-26
2022/08/26 04:37:48;;;;;;;;;;;21.90;99.90;;;;;;4589366;19;19918;-26
2022/08/26 04:39:19;;;;;;;;;;;21.90;99.90;;;;;;4589892;19;19919;-26
2022/08/26 04:40:50;;;;;;;;;;;21.90;99.90;;;;;;4589761;19;19931;-27
2022/08/26 04:42:21;;;;;;;;;;;21.90;99.90;;;;;;4589763;19;19911;-26
2022/08/26 04:43:52;;;;;;;;;;;21.90;99.90;;;;;;4592277;19;20013;-30
2022/08/26 04:45:24;;;;;;;;;;;21.90;99.90;;;;;;4594280;19;20299;-27
2022/08/26 04:46:55;;;;;;;;;;;21.90;99.90;;;;;;4596936;19;19919;-26
2022/08/26 04:48:27;;;;;;;;;;;21.90;99.90;;;;;;4595423;19;19919;-28
2022/08/26 04:49:58;;;;;;;;;;;22.00;99.90;;;;;;4593219;19;19937;-26
2022/08/26 04:51:31;;;;;;;;;;;22.00;99.90;;;;;;4593700;19;19926;-26
2022/08/26 04:53:03;;;;;;;;;;;22.10;99.90;;;;;;4592244;19;19914;-27
2022/08/26 04:54:33;;;;;;;;;;;22.20;99.90;;;;;;4592194;19;19915;-26
2022/08/26 04:56:04;;;;;;;;;;;22.20;99.90;;;;;;4590871;19;19975;-28
2022/08/26 04:57:36;;;;;;;;;;;22.20;99.90;;;;;;4591005;19;19986;-26
2022/08/26 04:59:07;;;;;;;;;;;22.20;99.90;;;;;;4590930;19;19926;-26
2022/08/26 05:00:38;;;;;;;;;;;22.20;99.90;;;;;;4591689;19;19938;-25
2022/08/26 05:02:10;;;;;;;;;;;22.30;99.90;;;;;;4592193;19;19919;-28
2022/08/26 05:03:41;;;;;;;;;;;22.30;99.90;;;;;;4592325;19;20026;-28
2022/08/26 05:05:12;;;;;;;;;;;22.30;99.90;;;;;;4592031;19;20032;-25
2022/08/26 05:06:43;;;;;;;;;;;22.30;99.90;;;;;;4592101;19;19949;-25
2022/08/26 05:08:15;;;;;;;;;;;22.30;99.90;;;;;;4594077;19;19925;-26
2022/08/26 05:09:46;;;;;;;;;;;22.30;99.90;;;;;;4594277;19;19922;-29
2022/08/26 05:11:17;;;;;;;;;;;22.30;99.90;;;;;;4592919;19;20010;-26
2022/08/26 05:12:48;;;;;;;;;;;22.30;99.90;;;;;;4593672;19;19918;-26
2022/08/26 05:14:19;;;;;;;;;;;22.30;99.90;;;;;;4594308;19;19919;-25
2022/08/26 05:15:51;;;;;;;;;;;22.30;99.90;;;;;;4592768;19;19935;-28
2022/08/26 05:17:22;;;;;;;;;;;22.30;99.90;;;;;;4592206;19;20320;-26
2022/08/26 05:18:56;;;;;;;;;;;22.30;99.90;;;;;;4592524;19;20351;-25
2022/08/26 05:20:31;;;;;;;;;;;22.30;99.90;;;;;;4593005;19;19945;-27
2022/08/26 05:22:03;;;;;;;;;;;22.30;99.90;;;;;;4594308;19;19918;-29
2022/08/26 05:23:35;;;;;;;;;;;22.30;99.90;;;;;;4592625;19;19915;-29
2022/08/26 05:25:06;;;;;;;;;;;22.40;99.90;;;;;;4591926;19;19925;-29
2022/08/26 05:26:38;;;;;;;;;;;22.30;99.90;;;;;;4594586;19;19937;-25
2022/08/26 05:28:14;;;;;;;12.52;8.73;;;22.30;99.90;;;;;;4591578;19;20794;-25
2022/08/26 05:29:45;;;;;;;14.52;8.80;;;22.20;99.90;;;;;;4590697;19;20021;-26
2022/08/26 05:31:18;;;;;;;15.43;8.95;;;22.20;99.90;;;;;;4592071;19;20018;-29
2022/08/26 05:32:49;;;;;;;17.45;8.40;;;22.20;99.90;;;;;;4591636;19;20301;-26
2022/08/26 05:34:20;;;;;;;9.07;7.57;;;22.20;99.90;;;;;;4591532;19;20443;-26
2022/08/26 05:35:58;;;;;;;11.48;8.35;;;22.20;99.90;;;;;;4590683;19;20019;-25
2022/08/26 05:37:37;;;;;;;15.70;8.68;;;22.20;99.90;;;;;;4590116;19;20508;-27
2022/08/26 05:39:08;;;;;;;14.90;8.52;;;22.20;99.90;;;;;;4591245;19;20078;-26
2022/08/26 05:40:42;;;;;;;9.27;7.80;;;22.20;99.90;;;;;;4590340;19;20010;-27
2022/08/26 05:42:14;;;;;;;11.73;8.68;;;22.20;99.90;;;;;;4589780;19;20046;-26
2022/08/26 05:43:45;;;;;;;14.63;9.88;;;22.10;99.90;;;;;;4591969;19;24416;-25
2022/08/26 05:45:16;;;;;;;;;;;22.20;99.90;;;;;;4594351;19;20035;-25
2022/08/26 05:46:48;;;;;;;16.63;9.90;;;22.10;99.90;;;;;;4591897;19;19929;-26
2022/08/26 05:48:19;;;;;;;18.27;10.27;;;22.20;99.90;;;;;;4591933;19;20360;-25
2022/08/26 05:49:50;;;;;;;12.50;8.32;;;22.10;99.90;;;;;;4589424;19;20045;-25
2022/08/26 05:51:22;;;;;;;14.95;9.32;;;22.10;99.90;;;;;;4592210;19;20010;-25
2022/08/26 05:52:53;;;;;;;10.63;8.35;;;22.10;99.90;;;;;;4591896;19;20392;-26
2022/08/26 05:54:24;;;;;;;6.22;5.63;;;22.10;99.90;;;;;;4591005;19;20010;-25
2022/08/26 05:55:55;;;;;;;13.27;10.88;;;22.10;99.90;;;;;;4590747;19;20010;-25
2022/08/26 05:57:29;;;;;;;;;;;22.00;99.90;;;;;;4592813;19;20015;-25
2022/08/26 05:59:01;;;;;;;;;;;21.80;99.90;;;;;;4592343;19;19922;-25
2022/08/26 06:00:33;;;;;;;;;;;21.60;99.90;;;;;;4591058;19;19911;-24
2022/08/26 06:02:05;;;;;;;;;;;21.50;99.90;;;;;;4591211;19;19933;-24
2022/08/26 06:03:37;;;;;;;;;;;21.40;99.90;;;;;;4590983;19;19918;-22
2022/08/26 06:05:08;;;;;;;;;;;21.40;99.90;;;;;;4590401;19;19919;-26
2022/08/26 06:06:40;;;;;;;;;;;21.30;99.90;;;;;;4593777;19;20570;-25
2022/08/26 06:08:12;;;;;;;;;;;21.30;99.90;;;;;;4593254;19;20347;-24
2022/08/26 06:09:43;;;;;;;;;;;21.30;99.90;;;;;;4590757;19;19923;-23
2022/08/26 06:11:25;;;;;;;;;;;21.20;99.90;;;;;;4592209;19;19925;-23
2022/08/26 06:12:56;;;;;;;;;;;21.30;99.90;;;;;;4592997;19;19927;-25
2022/08/26 06:14:27;;;;;;;;;;;21.30;99.90;;;;;;4592805;19;20274;-25
2022/08/26 06:15:58;;;;;;;;;;;21.20;99.90;;;;;;4591059;19;19970;-24
2022/08/26 06:17:30;;;;;;;;;;;21.20;99.90;;;;;;4591723;19;19946;-28
2022/08/26 06:19:01;;;;;;;;;;;21.20;99.90;;;;;;4589901;19;20268;-24
2022/08/26 06:20:32;;;;;;;;;;;21.20;99.90;;;;;;4589760;19;19938;-24
2022/08/26 06:25:36;;;;;;;;;;;21.20;99.90;;;;;;4592027;19;19978;-24
2022/08/26 06:25:47;;;;;;;;;;;21.20;99.90;;;;;;4592964;19;19914;-28
2022/08/26 06:27:18;;;;;;;;;;;21.20;99.90;;;;;;4592475;19;19922;-28
2022/08/26 06:28:49;;;;;;;;;;;21.20;99.90;;;;;;4591525;19;19923;-27
2022/08/26 06:30:20;;;;;;;;;;;21.20;99.90;;;;;;4591734;19;20010;-26
2022/08/26 06:31:51;;;;;;;;;;;21.20;99.90;;;;;;4591579;19;20248;-27
2022/08/26 06:33:23;;;;;;;;;;;21.10;99.90;;;;;;4591121;19;19964;-25
2022/08/26 06:34:54;;;;;;;;;;;21.10;99.90;;;;;;4590636;19;19922;-24
2022/08/26 06:36:25;;;;;;;;;;;21.10;99.90;;;;;;4589315;19;19922;-26
2022/08/26 06:37:56;;;;;;;;;;;21.20;99.90;;;;;;4591833;19;20328;-25
2022/08/26 06:39:27;;;;;;;;;;;21.20;99.90;;;;;;4592241;19;19922;-32
2022/08/26 06:40:59;;;;;;;;;;;21.20;99.90;;;;;;4591253;19;20333;-29
2022/08/26 06:42:31;;;;;;;;;;;21.40;99.90;;;;;;4592371;19;20324;-26
2022/08/26 06:44:03;;;;;;;;;;;21.60;99.90;;;;;;4592256;19;19921;-26
2022/08/26 06:45:34;;;;;;;9.77;8.43;;;21.70;99.90;;;;;;4590436;19;20321;-26
2022/08/26 06:47:06;;;;;;;13.15;8.80;;;21.50;99.90;;;;;;4590131;19;20006;-26
2022/08/26 06:48:38;;;;;;;12.48;8.57;;;21.40;99.90;;;;;;4590996;19;20529;-26
2022/08/26 06:50:09;;;;;;;12.52;8.80;;;21.30;99.90;;;;;;4589845;19;20018;-26
2022/08/26 06:51:41;;;;;;;10.80;8.38;;;21.30;99.90;;;;;;4590076;19;20022;-27
2022/08/26 06:53:14;;;;;;;;;;;21.30;99.90;;;;;;4591383;19;20019;-29
2022/08/26 06:54:45;;;;;;;12.00;8.55;;;21.20;99.90;;;;;;4590814;19;20245;-27
2022/08/26 06:56:19;;;;;;;10.50;9.00;;;21.20;99.90;;;;;;4590367;19;20006;-26
2022/08/26 06:57:50;;;;;;;11.23;8.48;;;21.20;99.90;;;;;;4590015;19;20009;-27
2022/08/26 06:59:21;;;;;;;10.77;8.77;;;21.10;99.90;;;;;;4589682;19;20139;-26
2022/08/26 07:00:52;;;;;;;14.18;8.23;;;21.10;99.90;;;;;;4589669;19;20014;-26
2022/08/26 07:02:23;;;;;;;10.07;8.23;;;21.10;99.90;;;;;;4590062;19;20003;-26
2022/08/26 07:03:56;;;;;;;12.10;8.70;;;21.10;99.90;;;;;;4590363;19;20006;-28
2022/08/26 07:05:27;;;;;;;12.70;8.60;;;21.20;99.90;;;;;;4590788;19;20033;-25
2022/08/26 07:06:59;;;;;;;11.10;8.63;;;21.10;99.90;;;;;;4590293;19;20014;-25
2022/08/26 07:08:30;;;;;;;9.07;8.00;;;21.10;99.90;;;;;;4590930;19;20033;-27
2022/08/26 07:10:01;;;;;;;10.00;8.40;;;21.10;99.90;;;;;;4590524;19;20011;-26
2022/08/26 07:11:32;;;;;;;10.57;8.65;;;21.10;99.90;;;;;;4589608;19;20009;-27
2022/08/26 07:13:03;;;;;;;13.90;9.23;;;21.10;99.90;;;;;;4589668;19;20014;-25
2022/08/26 07:14:34;;;;;;;12.75;9.25;;;21.10;99.90;;;;;;4588398;19;20010;-30
2022/08/26 07:16:07;;;;;;;11.88;8.70;;;21.10;99.90;;;;;;4589026;19;20078;-26
2022/08/26 07:17:38;;;;;;;9.75;7.40;;;21.10;99.90;;;;;;4590496;19;20066;-26
2022/08/26 07:19:09;;;;;;;13.45;9.27;;;21.10;99.90;;;;;;4590422;19;20438;-26
2022/08/26 07:20:40;;;;;;;9.90;8.35;;;21.10;99.90;;;;;;4588902;19;20475;-27
2022/08/26 07:22:11;;;;;;;10.05;8.30;;;21.10;99.90;;;;;;4589913;19;20027;-25
2022/08/26 07:23:44;;;;;;;14.00;9.27;;;21.10;99.90;;;;;;4590518;19;20015;-26
2022/08/26 07:25:15;;;;;;;12.05;8.75;;;21.10;99.90;;;;;;4590269;19;20014;-26
2022/08/26 07:26:46;;;;;;;11.27;8.35;;;21.10;99.90;;;;;;4589115;19;20021;-26
2022/08/26 07:28:17;;;;;;;8.90;7.70;;;21.10;99.90;;;;;;4589849;19;20033;-26
2022/08/26 07:29:48;;;;;;;11.95;9.02;;;21.10;99.90;;;;;;4589165;19;20007;-25
2022/08/26 07:31:21;;;;;;;8.57;7.68;;;21.10;99.90;;;;;;4590077;19;20035;-27
2022/08/26 07:32:55;;;;;;;11.57;8.30;;;21.10;99.90;;;;;;4589048;19;20014;-25
2022/08/26 07:34:26;;;;;;;12.82;8.30;;;21.10;99.90;;;;;;4589922;19;20011;-26
2022/08/26 07:35:57;;;;;;;11.70;7.60;;;21.10;99.90;;;;;;4589617;19;20041;-25
2022/08/26 07:37:28;;;;;;;11.10;7.05;;;21.10;99.90;;;;;;4587318;19;20010;-24
2022/08/26 07:39:00;;;;;;;10.95;7.85;;;21.10;99.90;;;;;;4587701;19;20279;-26
2022/08/26 07:40:32;;;;;;;11.57;8.13;;;21.10;99.90;;;;;;4589802;19;20086;-25
2022/08/26 07:42:05;;;;;;;12.48;8.18;;;21.10;99.90;;;;;;4589184;19;20456;-27
2022/08/26 07:43:37;;;;;;;10.57;7.55;;;21.10;99.90;;;;;;4588561;19;20416;-26
2022/08/26 07:45:08;;;;;;;11.88;7.47;;;21.10;99.90;;;;;;4589343;19;20422;-25
2022/08/26 07:46:39;;;;;;;11.00;7.68;;;21.10;99.90;;;;;;4589915;19;20022;-26
2022/08/26 07:48:11;;;;;;;9.73;7.05;;;21.10;99.90;;;;;;4588588;19;20467;-26
2022/08/26 07:49:42;;;;;;;;;;;21.10;99.90;;;;;;4589248;19;20015;-27
2022/08/26 07:51:14;;;;;;;9.48;8.00;;;21.10;99.90;;;;;;4586931;19;19998;-27
2022/08/26 07:52:46;;;;;;;8.90;8.00;;;21.10;99.90;;;;;;4588603;19;20014;-25
2022/08/26 07:54:17;;;;;;;9.68;7.47;;;21.10;99.90;;;;;;4589065;19;20010;-27
2022/08/26 07:55:49;;;;;;;9.15;7.00;;;21.10;99.90;;;;;;4587087;19;20014;-26
2022/08/26 07:57:20;;;;;;;11.32;7.00;;;21.20;99.90;;;;;;4589276;19;20014;-26
2022/08/26 07:58:52;;;;;;;9.02;5.78;;;21.40;99.90;;;;;;4588479;19;20006;-26
2022/08/26 08:00:23;;;;;;;9.80;6.35;;;21.60;99.90;;;;;;4588539;19;20074;-28
2022/08/26 08:01:59;;;;;;;;;;;21.80;99.90;;;;;;4589283;19;20014;-26
2022/08/26 08:03:34;;;;;;;6.38;4.85;;;22.00;99.90;;;;;;4588263;19;20284;-26
2022/08/26 08:05:10;;;;;;;9.18;4.97;;;22.20;99.90;;;;;;4588300;19;20014;-26
2022/08/26 08:06:44;;;;;;;8.15;5.20;;;22.40;99.90;;;;;;4587158;19;20010;-25
2022/08/26 08:08:16;;;;;;;8.60;5.75;;;22.50;99.90;;;;;;4588618;19;20035;-26
2022/08/26 08:09:48;;;;;;;6.32;5.25;;;22.60;99.90;;;;;;4587896;19;20062;-26
2022/08/26 08:11:20;;;;;;;5.80;4.10;;;22.80;99.90;;;;;;4589185;19;20032;-25
2022/08/26 08:12:53;;;;;;;5.47;4.50;;;22.90;99.90;;;;;;4589458;19;20014;-26
2022/08/26 08:14:27;;;;;;;9.50;5.07;;;23.00;99.90;;;;;;4587856;19;20352;-28
2022/08/26 08:16:00;;;;;;;10.70;5.97;;;23.10;99.90;;;;;;4587903;19;20014;-28
2022/08/26 08:17:35;;;;;;;11.13;5.45;;;23.20;99.90;;;;;;4588049;19;20089;-25
2022/08/26 08:19:08;;;;;;;8.70;5.90;;;23.30;99.90;;;;;;4588083;19;20015;-25
2022/08/26 08:20:41;;;;;;;6.00;4.40;;;23.40;99.90;;;;;;4587597;19;20144;-29
2022/08/26 08:22:12;;;;;;;5.07;4.28;;;23.40;99.90;;;;;;4588498;19;20356;-30
2022/08/26 08:23:44;;;;;;;9.65;4.95;;;23.40;99.90;;;;;;4589188;19;20028;-27
2022/08/26 08:25:17;;;;;;;8.52;5.22;;;23.50;99.90;;;;;;4588601;19;20074;-27
2022/08/26 08:26:58;;;;;;;5.85;4.85;;;23.50;99.90;;;;;;4589072;19;20123;-26
2022/08/26 08:28:32;;;;;;;7.82;4.53;;;23.60;99.90;;;;;;4588022;19;20014;-26
2022/08/26 08:30:06;;;;;;;6.97;4.68;;;23.70;99.90;;;;;;4588988;19;20022;-26
2022/08/26 08:31:38;;;;;;;7.63;4.78;;;23.70;99.90;;;;;;4588041;19;20028;-25
2022/08/26 08:33:11;;;;;;;7.75;5.78;;;23.70;99.90;;;;;;4588769;19;20015;-26
2022/08/26 08:34:42;;;;;;;;;;;23.60;99.90;;;;;;4588411;19;20014;-26
2022/08/26 08:36:15;;;;;;;8.85;5.28;;;23.50;99.90;;;;;;4586148;19;19922;-28
2022/08/26 08:37:49;;;;;;;7.93;4.75;;;23.40;99.90;;;;;;4587620;19;20022;-24
2022/08/26 08:39:21;;;;;;;8.43;5.20;;;23.40;99.90;;;;;;4587372;19;20537;-26
2022/08/26 08:40:52;;;;;;;8.35;4.68;;;23.40;99.90;;;;;;4587893;19;20364;-27